Terminal Aerodrome Forecast
Issued by NWS

Home | Current Version | Previous Version | Text Only | Print | Product List | Glossary On
Versions: 1 2 3 4 5 6 7 8 9 10 11 12 13 14 15 16 17
000
FTUS41 KCAR 161700
TAFHUL
TAF
KHUL 161720Z 1618/1718 24008KT P6SM SCT020 BKN050
     FM162000 22007KT P6SM VCSH BKN035
     FM162300 VRB03KT P6SM SCT040 BKN110
     FM170300 00000KT 3SM BR BKN200
     FM171100 24004KT P6SM SCT120=

USA.gov is the U.S. government's official web portal to all federal, state and local government web resources and services.